sensor_id;sensor_type;location;lat;lon;timestamp;temperature;humidity
36856;DHT22;22788;51.434;6.786;2022-08-05T00:01:12;23.80;78.90
36856;DHT22;22788;51.434;6.786;2022-08-05T00:03:38;23.80;79.30
36856;DHT22;22788;51.434;6.786;2022-08-05T00:06:07;23.70;79.40
36856;DHT22;22788;51.434;6.786;2022-08-05T00:08:34;23.60;79.70
36856;DHT22;22788;51.434;6.786;2022-08-05T00:11:01;23.60;80.20
36856;DHT22;22788;51.434;6.786;2022-08-05T00:13:30;23.50;80.50
36856;DHT22;22788;51.434;6.786;2022-08-05T00:15:56;23.40;80.90
36856;DHT22;22788;51.434;6.786;2022-08-05T00:18:22;23.40;80.90
36856;DHT22;22788;51.434;6.786;2022-08-05T00:20:48;23.40;81.20
36856;DHT22;22788;51.434;6.786;2022-08-05T00:23:16;23.30;81.40
36856;DHT22;22788;51.434;6.786;2022-08-05T00:25:42;23.30;81.40
36856;DHT22;22788;51.434;6.786;2022-08-05T00:28:08;23.20;81.50
36856;DHT22;22788;51.434;6.786;2022-08-05T00:30:34;23.20;81.80
36856;DHT22;22788;51.434;6.786;2022-08-05T00:33:01;23.20;81.80
36856;DHT22;22788;51.434;6.786;2022-08-05T00:35:27;23.20;81.60
36856;DHT22;22788;51.434;6.786;2022-08-05T00:37:53;23.20;81.60
36856;DHT22;22788;51.434;6.786;2022-08-05T00:40:21;23.20;81.90
36856;DHT22;22788;51.434;6.786;2022-08-05T00:42:48;23.10;82.10
36856;DHT22;22788;51.434;6.786;2022-08-05T00:45:14;23.10;82.50
36856;DHT22;22788;51.434;6.786;2022-08-05T00:47:40;23.00;82.80
36856;DHT22;22788;51.434;6.786;2022-08-05T00:50:07;23.00;82.70
36856;DHT22;22788;51.434;6.786;2022-08-05T00:52:33;22.90;82.80
36856;DHT22;22788;51.434;6.786;2022-08-05T00:54:59;22.90;82.80
36856;DHT22;22788;51.434;6.786;2022-08-05T00:57:27;22.90;83.00
36856;DHT22;22788;51.434;6.786;2022-08-05T00:59:53;22.90;83.80
36856;DHT22;22788;51.434;6.786;2022-08-05T01:02:19;22.80;83.30
36856;DHT22;22788;51.434;6.786;2022-08-05T01:04:45;22.80;83.40
36856;DHT22;22788;51.434;6.786;2022-08-05T01:07:11;22.80;83.50
36856;DHT22;22788;51.434;6.786;2022-08-05T01:09:37;22.70;83.40
36856;DHT22;22788;51.434;6.786;2022-08-05T01:12:07;22.70;83.70
36856;DHT22;22788;51.434;6.786;2022-08-05T01:14:40;22.70;83.80
36856;DHT22;22788;51.434;6.786;2022-08-05T01:17:12;22.60;84.00
36856;DHT22;22788;51.434;6.786;2022-08-05T01:19:42;22.60;84.10
36856;DHT22;22788;51.434;6.786;2022-08-05T01:22:17;22.60;84.00
36856;DHT22;22788;51.434;6.786;2022-08-05T01:25:04;22.60;84.20
36856;DHT22;22788;51.434;6.786;2022-08-05T01:28:08;22.60;84.20
36856;DHT22;22788;51.434;6.786;2022-08-05T01:30:43;22.50;84.00
36856;DHT22;22788;51.434;6.786;2022-08-05T01:33:11;22.50;84.10
36856;DHT22;22788;51.434;6.786;2022-08-05T01:35:41;22.40;84.40
36856;DHT22;22788;51.434;6.786;2022-08-05T01:38:11;22.50;84.30
36856;DHT22;22788;51.434;6.786;2022-08-05T01:40:38;22.50;84.40
36856;DHT22;22788;51.434;6.786;2022-08-05T01:43:07;22.40;84.50
36856;DHT22;22788;51.434;6.786;2022-08-05T01:45:35;22.40;84.70
36856;DHT22;22788;51.434;6.786;2022-08-05T01:48:03;22.30;84.90
36856;DHT22;22788;51.434;6.786;2022-08-05T01:50:31;22.30;85.20
36856;DHT22;22788;51.434;6.786;2022-08-05T01:53:01;22.30;85.20
36856;DHT22;22788;51.434;6.786;2022-08-05T01:55:31;22.30;85.00
36856;DHT22;22788;51.434;6.786;2022-08-05T01:57:58;22.40;84.80
36856;DHT22;22788;51.434;6.786;2022-08-05T02:00:28;22.40;84.60
36856;DHT22;22788;51.434;6.786;2022-08-05T02:02:59;22.40;84.60
36856;DHT22;22788;51.434;6.786;2022-08-05T02:05:28;22.40;84.60
36856;DHT22;22788;51.434;6.786;2022-08-05T02:07:55;22.40;84.80
36856;DHT22;22788;51.434;6.786;2022-08-05T02:10:21;22.40;84.70
36856;DHT22;22788;51.434;6.786;2022-08-05T02:12:52;22.20;84.90
36856;DHT22;22788;51.434;6.786;2022-08-05T02:15:23;22.20;85.60
36856;DHT22;22788;51.434;6.786;2022-08-05T02:17:55;22.30;85.10
36856;DHT22;22788;51.434;6.786;2022-08-05T02:20:27;22.30;84.70
36856;DHT22;22788;51.434;6.786;2022-08-05T02:22:58;22.40;84.50
36856;DHT22;22788;51.434;6.786;2022-08-05T02:25:28;22.50;84.20
36856;DHT22;22788;51.434;6.786;2022-08-05T02:27:57;22.50;84.00
36856;DHT22;22788;51.434;6.786;2022-08-05T02:30:25;22.60;83.90
36856;DHT22;22788;51.434;6.786;2022-08-05T02:32:55;22.40;83.70
36856;DHT22;22788;51.434;6.786;2022-08-05T02:35:25;22.30;84.00
36856;DHT22;22788;51.434;6.786;2022-08-05T02:37:52;22.30;84.50
36856;DHT22;22788;51.434;6.786;2022-08-05T02:40:21;22.30;84.50
36856;DHT22;22788;51.434;6.786;2022-08-05T02:42:48;22.20;84.70
36856;DHT22;22788;51.434;6.786;2022-08-05T02:45:15;22.20;84.80
36856;DHT22;22788;51.434;6.786;2022-08-05T02:47:42;22.30;84.60
36856;DHT22;22788;51.434;6.786;2022-08-05T02:50:11;22.40;84.60
36856;DHT22;22788;51.434;6.786;2022-08-05T02:52:39;22.50;84.20
36856;DHT22;22788;51.434;6.786;2022-08-05T02:55:06;22.50;83.70
36856;DHT22;22788;51.434;6.786;2022-08-05T02:57:34;22.60;83.30
36856;DHT22;22788;51.434;6.786;2022-08-05T03:00:01;22.70;83.00
36856;DHT22;22788;51.434;6.786;2022-08-05T03:02:28;22.70;82.90
36856;DHT22;22788;51.434;6.786;2022-08-05T03:04:57;22.70;82.80
36856;DHT22;22788;51.434;6.786;2022-08-05T03:07:26;22.80;82.70
36856;DHT22;22788;51.434;6.786;2022-08-05T03:09:52;22.80;82.60
36856;DHT22;22788;51.434;6.786;2022-08-05T03:12:31;22.80;82.40
36856;DHT22;22788;51.434;6.786;2022-08-05T03:14:58;22.80;82.50
36856;DHT22;22788;51.434;6.786;2022-08-05T03:17:24;22.80;82.50
36856;DHT22;22788;51.434;6.786;2022-08-05T03:19:50;22.80;82.60
36856;DHT22;22788;51.434;6.786;2022-08-05T03:22:16;22.80;82.80
36856;DHT22;22788;51.434;6.786;2022-08-05T03:24:45;22.80;82.80
36856;DHT22;22788;51.434;6.786;2022-08-05T03:27:12;22.70;82.70
36856;DHT22;22788;51.434;6.786;2022-08-05T03:29:38;22.80;82.90
36856;DHT22;22788;51.434;6.786;2022-08-05T03:32:05;22.80;82.90
36856;DHT22;22788;51.434;6.786;2022-08-05T03:34:31;22.70;82.70
36856;DHT22;22788;51.434;6.786;2022-08-05T03:36:57;22.70;82.80
36856;DHT22;22788;51.434;6.786;2022-08-05T03:39:23;22.50;83.00
36856;DHT22;22788;51.434;6.786;2022-08-05T03:41:51;22.40;83.60
36856;DHT22;22788;51.434;6.786;2022-08-05T03:44:17;22.20;84.30
36856;DHT22;22788;51.434;6.786;2022-08-05T03:46:43;22.10;85.10
36856;DHT22;22788;51.434;6.786;2022-08-05T03:49:09;22.10;85.30
36856;DHT22;22788;51.434;6.786;2022-08-05T03:51:37;22.10;85.20
36856;DHT22;22788;51.434;6.786;2022-08-05T03:54:07;22.00;85.40
36856;DHT22;22788;51.434;6.786;2022-08-05T03:56:38;22.00;85.50
36856;DHT22;22788;51.434;6.786;2022-08-05T03:59:08;22.10;85.60
36856;DHT22;22788;51.434;6.786;2022-08-05T04:01:38;22.10;85.50
36856;DHT22;22788;51.434;6.786;2022-08-05T04:04:05;22.10;85.60
36856;DHT22;22788;51.434;6.786;2022-08-05T04:06:32;22.00;85.50
36856;DHT22;22788;51.434;6.786;2022-08-05T04:08:59;22.00;85.50
36856;DHT22;22788;51.434;6.786;2022-08-05T04:11:25;22.00;85.50
36856;DHT22;22788;51.434;6.786;2022-08-05T04:13:52;22.00;85.60
36856;DHT22;22788;51.434;6.786;2022-08-05T04:16:20;22.10;85.20
36856;DHT22;22788;51.434;6.786;2022-08-05T04:18:46;22.20;85.10
36856;DHT22;22788;51.434;6.786;2022-08-05T04:21:12;22.30;84.90
36856;DHT22;22788;51.434;6.786;2022-08-05T04:23:39;22.30;84.60
36856;DHT22;22788;51.434;6.786;2022-08-05T04:26:05;22.40;84.30
36856;DHT22;22788;51.434;6.786;2022-08-05T04:28:31;22.50;83.80
36856;DHT22;22788;51.434;6.786;2022-08-05T04:30:57;22.50;83.80
36856;DHT22;22788;51.434;6.786;2022-08-05T04:33:25;22.40;84.00
36856;DHT22;22788;51.434;6.786;2022-08-05T04:35:52;22.30;84.10
36856;DHT22;22788;51.434;6.786;2022-08-05T04:38:18;22.20;84.40
36856;DHT22;22788;51.434;6.786;2022-08-05T04:40:44;22.20;84.80
36856;DHT22;22788;51.434;6.786;2022-08-05T04:43:10;22.10;84.70
36856;DHT22;22788;51.434;6.786;2022-08-05T04:45:36;22.10;85.00
36856;DHT22;22788;51.434;6.786;2022-08-05T04:48:03;22.10;85.00
36856;DHT22;22788;51.434;6.786;2022-08-05T04:50:31;22.10;85.00
36856;DHT22;22788;51.434;6.786;2022-08-05T04:52:57;22.10;84.80
36856;DHT22;22788;51.434;6.786;2022-08-05T04:55:23;22.20;84.90
36856;DHT22;22788;51.434;6.786;2022-08-05T04:57:49;22.20;84.90
36856;DHT22;22788;51.434;6.786;2022-08-05T05:00:16;22.20;84.90
36856;DHT22;22788;51.434;6.786;2022-08-05T05:02:42;22.10;84.90
36856;DHT22;22788;51.434;6.786;2022-08-05T05:05:08;22.10;85.00
36856;DHT22;22788;51.434;6.786;2022-08-05T05:07:35;22.00;85.40
36856;DHT22;22788;51.434;6.786;2022-08-05T05:10:02;21.80;85.90
36856;DHT22;22788;51.434;6.786;2022-08-05T05:12:28;21.70;86.30
36856;DHT22;22788;51.434;6.786;2022-08-05T05:14:54;21.70;86.80
36856;DHT22;22788;51.434;6.786;2022-08-05T05:17:20;21.60;87.00
36856;DHT22;22788;51.434;6.786;2022-08-05T05:19:46;21.50;87.30
36856;DHT22;22788;51.434;6.786;2022-08-05T05:22:12;21.60;87.20
36856;DHT22;22788;51.434;6.786;2022-08-05T05:24:40;21.60;87.10
36856;DHT22;22788;51.434;6.786;2022-08-05T05:27:06;21.60;86.80
36856;DHT22;22788;51.434;6.786;2022-08-05T05:29:32;21.80;86.70
36856;DHT22;22788;51.434;6.786;2022-08-05T05:31:58;21.80;86.30
36856;DHT22;22788;51.434;6.786;2022-08-05T05:34:24;21.70;86.30
36856;DHT22;22788;51.434;6.786;2022-08-05T05:36:50;21.70;86.40
36856;DHT22;22788;51.434;6.786;2022-08-05T05:39:16;21.60;86.50
36856;DHT22;22788;51.434;6.786;2022-08-05T05:41:43;21.50;86.90
36856;DHT22;22788;51.434;6.786;2022-08-05T05:44:09;21.40;87.10
36856;DHT22;22788;51.434;6.786;2022-08-05T05:46:36;21.40;87.30
36856;DHT22;22788;51.434;6.786;2022-08-05T05:49:02;21.40;87.50
36856;DHT22;22788;51.434;6.786;2022-08-05T05:51:28;21.50;87.50
36856;DHT22;22788;51.434;6.786;2022-08-05T05:53:54;21.50;86.80
36856;DHT22;22788;51.434;6.786;2022-08-05T05:56:20;21.50;86.90
36856;DHT22;22788;51.434;6.786;2022-08-05T05:58:47;21.50;87.00
36856;DHT22;22788;51.434;6.786;2022-08-05T06:01:14;21.40;87.10
36856;DHT22;22788;51.434;6.786;2022-08-05T06:03:40;21.40;87.10
36856;DHT22;22788;51.434;6.786;2022-08-05T06:06:06;21.30;86.90
36856;DHT22;22788;51.434;6.786;2022-08-05T06:08:33;21.20;87.00
36856;DHT22;22788;51.434;6.786;2022-08-05T06:10:59;21.20;87.60
36856;DHT22;22788;51.434;6.786;2022-08-05T06:13:25;21.20;87.50
36856;DHT22;22788;51.434;6.786;2022-08-05T06:15:52;21.20;87.40
36856;DHT22;22788;51.434;6.786;2022-08-05T06:18:18;21.10;87.40
36856;DHT22;22788;51.434;6.786;2022-08-05T06:20:44;21.10;87.40
36856;DHT22;22788;51.434;6.786;2022-08-05T06:23:10;21.10;87.70
36856;DHT22;22788;51.434;6.786;2022-08-05T06:25:36;21.10;87.30
36856;DHT22;22788;51.434;6.786;2022-08-05T06:28:03;21.10;87.30
36856;DHT22;22788;51.434;6.786;2022-08-05T06:30:29;21.00;87.00
36856;DHT22;22788;51.434;6.786;2022-08-05T06:32:56;21.00;87.10
36856;DHT22;22788;51.434;6.786;2022-08-05T06:35:22;21.00;87.10
36856;DHT22;22788;51.434;6.786;2022-08-05T06:37:49;20.90;87.40
36856;DHT22;22788;51.434;6.786;2022-08-05T06:40:15;20.90;87.40
36856;DHT22;22788;51.434;6.786;2022-08-05T06:42:41;20.80;87.50
36856;DHT22;22788;51.434;6.786;2022-08-05T06:45:08;20.80;87.70
36856;DHT22;22788;51.434;6.786;2022-08-05T06:47:34;20.90;87.50
36856;DHT22;22788;51.434;6.786;2022-08-05T06:50:01;20.90;87.70
36856;DHT22;22788;51.434;6.786;2022-08-05T06:52:27;21.00;87.10
36856;DHT22;22788;51.434;6.786;2022-08-05T06:54:53;21.00;86.80
36856;DHT22;22788;51.434;6.786;2022-08-05T06:57:19;21.00;86.80
36856;DHT22;22788;51.434;6.786;2022-08-05T06:59:45;21.00;86.80
36856;DHT22;22788;51.434;6.786;2022-08-05T07:02:11;21.00;86.70
36856;DHT22;22788;51.434;6.786;2022-08-05T07:04:37;21.00;86.50
36856;DHT22;22788;51.434;6.786;2022-08-05T07:07:05;21.00;86.90
36856;DHT22;22788;51.434;6.786;2022-08-05T07:09:31;21.10;86.50
36856;DHT22;22788;51.434;6.786;2022-08-05T07:11:57;21.20;86.30
36856;DHT22;22788;51.434;6.786;2022-08-05T07:14:23;21.10;86.20
36856;DHT22;22788;51.434;6.786;2022-08-05T07:16:49;21.10;86.20
36856;DHT22;22788;51.434;6.786;2022-08-05T07:19:16;21.10;85.90
36856;DHT22;22788;51.434;6.786;2022-08-05T07:21:42;21.00;85.70
36856;DHT22;22788;51.434;6.786;2022-08-05T07:24:09;21.10;86.50
36856;DHT22;22788;51.434;6.786;2022-08-05T07:26:35;21.10;85.70
36856;DHT22;22788;51.434;6.786;2022-08-05T07:29:02;21.10;85.70
36856;DHT22;22788;51.434;6.786;2022-08-05T07:31:28;21.00;85.40
36856;DHT22;22788;51.434;6.786;2022-08-05T07:33:54;21.00;85.80
36856;DHT22;22788;51.434;6.786;2022-08-05T07:36:20;21.00;85.60
36856;DHT22;22788;51.434;6.786;2022-08-05T07:38:46;21.00;85.80
36856;DHT22;22788;51.434;6.786;2022-08-05T07:41:17;20.90;85.50
36856;DHT22;22788;51.434;6.786;2022-08-05T07:43:43;20.80;85.50
36856;DHT22;22788;51.434;6.786;2022-08-05T07:46:10;20.80;85.60
36856;DHT22;22788;51.434;6.786;2022-08-05T07:48:36;20.80;85.30
36856;DHT22;22788;51.434;6.786;2022-08-05T07:51:02;20.70;85.40
36856;DHT22;22788;51.434;6.786;2022-08-05T07:53:28;20.60;85.60
36856;DHT22;22788;51.434;6.786;2022-08-05T07:55:55;20.60;86.10
36856;DHT22;22788;51.434;6.786;2022-08-05T07:58:22;20.50;86.00
36856;DHT22;22788;51.434;6.786;2022-08-05T08:00:48;20.50;86.10
36856;DHT22;22788;51.434;6.786;2022-08-05T08:03:14;20.40;86.30
36856;DHT22;22788;51.434;6.786;2022-08-05T08:05:41;20.40;86.50
36856;DHT22;22788;51.434;6.786;2022-08-05T08:08:08;20.30;86.70
36856;DHT22;22788;51.434;6.786;2022-08-05T08:10:34;20.40;86.70
36856;DHT22;22788;51.434;6.786;2022-08-05T08:13:00;20.40;86.70
36856;DHT22;22788;51.434;6.786;2022-08-05T08:15:27;20.50;86.90
36856;DHT22;22788;51.434;6.786;2022-08-05T08:17:53;20.60;86.80
36856;DHT22;22788;51.434;6.786;2022-08-05T08:20:20;20.70;86.30
36856;DHT22;22788;51.434;6.786;2022-08-05T08:22:51;20.70;86.00
36856;DHT22;22788;51.434;6.786;2022-08-05T08:25:17;20.80;85.90
36856;DHT22;22788;51.434;6.786;2022-08-05T08:27:43;20.80;85.90
36856;DHT22;22788;51.434;6.786;2022-08-05T08:30:10;20.90;85.50
36856;DHT22;22788;51.434;6.786;2022-08-05T08:32:37;21.10;85.20
36856;DHT22;22788;51.434;6.786;2022-08-05T08:35:05;21.00;84.80
36856;DHT22;22788;51.434;6.786;2022-08-05T08:37:31;21.00;85.00
36856;DHT22;22788;51.434;6.786;2022-08-05T08:39:57;20.90;84.90
36856;DHT22;22788;51.434;6.786;2022-08-05T08:42:24;20.90;84.50
36856;DHT22;22788;51.434;6.786;2022-08-05T08:44:53;20.80;84.80
36856;DHT22;22788;51.434;6.786;2022-08-05T08:47:23;20.80;85.70
36856;DHT22;22788;51.434;6.786;2022-08-05T08:49:53;20.80;85.70
36856;DHT22;22788;51.434;6.786;2022-08-05T08:52:22;20.90;85.40
36856;DHT22;22788;51.434;6.786;2022-08-05T08:54:51;20.90;85.10
36856;DHT22;22788;51.434;6.786;2022-08-05T08:57:17;21.00;85.00
36856;DHT22;22788;51.434;6.786;2022-08-05T08:59:44;21.00;84.80
36856;DHT22;22788;51.434;6.786;2022-08-05T09:02:11;21.00;85.00
36856;DHT22;22788;51.434;6.786;2022-08-05T09:04:37;20.90;84.80
36856;DHT22;22788;51.434;6.786;2022-08-05T09:07:05;20.90;84.80
36856;DHT22;22788;51.434;6.786;2022-08-05T09:09:32;21.00;85.10
36856;DHT22;22788;51.434;6.786;2022-08-05T09:11:59;21.00;84.90
36856;DHT22;22788;51.434;6.786;2022-08-05T09:14:25;21.10;84.80
36856;DHT22;22788;51.434;6.786;2022-08-05T09:16:52;21.10;84.60
36856;DHT22;22788;51.434;6.786;2022-08-05T09:19:18;21.00;84.70
36856;DHT22;22788;51.434;6.786;2022-08-05T09:21:44;21.10;84.70
36856;DHT22;22788;51.434;6.786;2022-08-05T09:24:11;21.00;84.50
36856;DHT22;22788;51.434;6.786;2022-08-05T09:26:38;21.00;84.60
36856;DHT22;22788;51.434;6.786;2022-08-05T09:29:06;20.90;84.80
36856;DHT22;22788;51.434;6.786;2022-08-05T10:04:16;21.10;83.50
36856;DHT22;22788;51.434;6.786;2022-08-05T10:06:52;21.10;83.70
36856;DHT22;22788;51.434;6.786;2022-08-05T10:09:19;21.10;83.40
36856;DHT22;22788;51.434;6.786;2022-08-05T10:11:46;21.10;83.70
36856;DHT22;22788;51.434;6.786;2022-08-05T10:14:25;21.10;83.00
36856;DHT22;22788;51.434;6.786;2022-08-05T10:16:52;21.20;82.90
36856;DHT22;22788;51.434;6.786;2022-08-05T10:19:19;21.20;83.10
36856;DHT22;22788;51.434;6.786;2022-08-05T10:21:45;21.30;83.00
36856;DHT22;22788;51.434;6.786;2022-08-05T10:24:11;21.30;82.80
36856;DHT22;22788;51.434;6.786;2022-08-05T10:26:39;21.40;83.00
36856;DHT22;22788;51.434;6.786;2022-08-05T10:29:06;21.50;81.90
36856;DHT22;22788;51.434;6.786;2022-08-05T10:31:35;21.50;81.50
36856;DHT22;22788;51.434;6.786;2022-08-05T10:34:01;21.60;82.00
36856;DHT22;22788;51.434;6.786;2022-08-05T10:36:27;21.60;80.50
36856;DHT22;22788;51.434;6.786;2022-08-05T10:38:59;21.70;81.00
36856;DHT22;22788;51.434;6.786;2022-08-05T10:41:32;21.70;79.70
36856;DHT22;22788;51.434;6.786;2022-08-05T10:44:03;21.70;79.10
36856;DHT22;22788;51.434;6.786;2022-08-05T10:46:44;21.70;79.20
36856;DHT22;22788;51.434;6.786;2022-08-05T10:49:10;21.60;79.90
36856;DHT22;22788;51.434;6.786;2022-08-05T10:51:41;21.70;79.70
36856;DHT22;22788;51.434;6.786;2022-08-05T10:54:08;21.90;80.10
36856;DHT22;22788;51.434;6.786;2022-08-05T10:56:43;22.00;79.70
36856;DHT22;22788;51.434;6.786;2022-08-05T10:59:09;22.00;78.90
36856;DHT22;22788;51.434;6.786;2022-08-05T11:01:37;22.10;78.70
36856;DHT22;22788;51.434;6.786;2022-08-05T11:04:21;22.10;77.90
36856;DHT22;22788;51.434;6.786;2022-08-05T11:07:04;22.10;78.10
36856;DHT22;22788;51.434;6.786;2022-08-05T11:09:41;22.10;78.00
36856;DHT22;22788;51.434;6.786;2022-08-05T11:15:04;22.10;90.30
36856;DHT22;22788;51.434;6.786;2022-08-05T11:17:32;22.20;90.60
36856;DHT22;22788;51.434;6.786;2022-08-05T11:20:00;22.10;90.00
36856;DHT22;22788;51.434;6.786;2022-08-05T11:22:40;22.00;89.50
36856;DHT22;22788;51.434;6.786;2022-08-05T11:25:26;22.10;89.40
36856;DHT22;22788;51.434;6.786;2022-08-05T11:27:52;22.10;88.80
36856;DHT22;22788;51.434;6.786;2022-08-05T11:30:18;22.10;89.00
36856;DHT22;22788;51.434;6.786;2022-08-05T11:32:44;22.10;87.70
36856;DHT22;22788;51.434;6.786;2022-08-05T11:35:55;22.00;86.40
36856;DHT22;22788;51.434;6.786;2022-08-05T11:38:49;22.20;86.70
36856;DHT22;22788;51.434;6.786;2022-08-05T11:41:17;22.30;84.30
36856;DHT22;22788;51.434;6.786;2022-08-05T11:43:52;22.50;82.10
36856;DHT22;22788;51.434;6.786;2022-08-05T11:46:24;22.50;79.90
36856;DHT22;22788;51.434;6.786;2022-08-05T11:48:50;22.50;78.50
36856;DHT22;22788;51.434;6.786;2022-08-05T11:51:18;22.60;77.20
36856;DHT22;22788;51.434;6.786;2022-08-05T11:53:45;22.80;76.30
36856;DHT22;22788;51.434;6.786;2022-08-05T11:56:11;22.50;76.10
36856;DHT22;22788;51.434;6.786;2022-08-05T11:58:38;22.50;76.40
36856;DHT22;22788;51.434;6.786;2022-08-05T12:01:06;22.50;75.70
36856;DHT22;22788;51.434;6.786;2022-08-05T12:03:42;22.40;75.80
36856;DHT22;22788;51.434;6.786;2022-08-05T12:06:09;22.40;75.90
36856;DHT22;22788;51.434;6.786;2022-08-05T12:08:41;22.40;75.60
36856;DHT22;22788;51.434;6.786;2022-08-05T12:13:35;22.60;75.10
36856;DHT22;22788;51.434;6.786;2022-08-05T12:16:01;22.60;74.90
36856;DHT22;22788;51.434;6.786;2022-08-05T12:18:32;22.70;74.60
36856;DHT22;22788;51.434;6.786;2022-08-05T12:21:09;22.60;75.20
36856;DHT22;22788;51.434;6.786;2022-08-05T12:23:35;22.80;74.70
36856;DHT22;22788;51.434;6.786;2022-08-05T12:26:02;22.60;75.30
36856;DHT22;22788;51.434;6.786;2022-08-05T12:28:30;22.80;75.10
36856;DHT22;22788;51.434;6.786;2022-08-05T12:30:56;23.40;75.60
36856;DHT22;22788;51.434;6.786;2022-08-05T12:53:05;22.40;84.70
36856;DHT22;22788;51.434;6.786;2022-08-05T12:55:31;22.40;82.10
36856;DHT22;22788;51.434;6.786;2022-08-05T12:57:58;22.40;80.10
36856;DHT22;22788;51.434;6.786;2022-08-05T13:00:27;22.40;78.70
36856;DHT22;22788;51.434;6.786;2022-08-05T13:02:53;22.40;78.40
36856;DHT22;22788;51.434;6.786;2022-08-05T13:05:19;22.40;78.80
36856;DHT22;22788;51.434;6.786;2022-08-05T13:07:45;22.80;78.60
36856;DHT22;22788;51.434;6.786;2022-08-05T13:10:13;22.30;80.30
36856;DHT22;22788;51.434;6.786;2022-08-05T13:12:42;22.40;81.00
36856;DHT22;22788;51.434;6.786;2022-08-05T13:15:09;22.40;80.60
36856;DHT22;22788;51.434;6.786;2022-08-05T13:17:38;22.50;81.00
36856;DHT22;22788;51.434;6.786;2022-08-05T13:20:05;22.60;81.30
36856;DHT22;22788;51.434;6.786;2022-08-05T13:22:33;22.50;81.50
36856;DHT22;22788;51.434;6.786;2022-08-05T13:25:00;22.50;83.50
36856;DHT22;22788;51.434;6.786;2022-08-05T13:27:27;22.20;73.20
36856;DHT22;22788;51.434;6.786;2022-08-05T13:29:53;22.40;74.00
36856;DHT22;22788;51.434;6.786;2022-08-05T13:32:20;22.40;73.70
36856;DHT22;22788;51.434;6.786;2022-08-05T13:34:47;22.30;73.10
36856;DHT22;22788;51.434;6.786;2022-08-05T13:37:14;22.30;73.10
36856;DHT22;22788;51.434;6.786;2022-08-05T13:39:40;22.30;73.20
36856;DHT22;22788;51.434;6.786;2022-08-05T13:42:07;22.00;73.20
36856;DHT22;22788;51.434;6.786;2022-08-05T13:44:33;22.30;72.50
36856;DHT22;22788;51.434;6.786;2022-08-05T13:46:59;22.20;72.70
36856;DHT22;22788;51.434;6.786;2022-08-05T13:49:25;22.20;73.20
36856;DHT22;22788;51.434;6.786;2022-08-05T13:51:52;22.20;73.00
36856;DHT22;22788;51.434;6.786;2022-08-05T13:54:18;22.80;72.70
36856;DHT22;22788;51.434;6.786;2022-08-05T13:56:45;22.10;72.30
36856;DHT22;22788;51.434;6.786;2022-08-05T13:59:11;22.30;72.40
36856;DHT22;22788;51.434;6.786;2022-08-05T14:01:37;22.20;73.10
36856;DHT22;22788;51.434;6.786;2022-08-05T14:04:03;22.40;73.80
36856;DHT22;22788;51.434;6.786;2022-08-05T14:06:30;22.40;73.20
36856;DHT22;22788;51.434;6.786;2022-08-05T14:08:57;22.40;72.10
36856;DHT22;22788;51.434;6.786;2022-08-05T14:11:23;22.50;72.50
36856;DHT22;22788;51.434;6.786;2022-08-05T14:13:49;23.50;74.80
36856;DHT22;22788;51.434;6.786;2022-08-05T14:18:42;22.90;69.00
36856;DHT22;22788;51.434;6.786;2022-08-05T14:21:08;23.10;69.90
36856;DHT22;22788;51.434;6.786;2022-08-05T14:23:34;23.20;68.70
36856;DHT22;22788;51.434;6.786;2022-08-05T14:26:01;23.20;68.50
36856;DHT22;22788;51.434;6.786;2022-08-05T14:28:28;22.90;69.00
36856;DHT22;22788;51.434;6.786;2022-08-05T14:30:55;23.10;67.70
36856;DHT22;22788;51.434;6.786;2022-08-05T14:33:21;23.00;67.30
